Time;durP1;ratioP1;P1;durP2;ratioP2;P2;SDS_P1;SDS_P2;PMS_P1;PMS_P2;Temp;Humidity;BMP_temperature;BMP_pressure;BME280_temperature;BME280_humidity;BME280_pressure;Samples;Min_cycle;Max_cycle;Signal;HPM_P1;HPM_P2
2021/12/30 00:00:15;;;;;;;28.33;7.93;;;;;;;-143.35;100.00;58682.94;4994249;28;20081;-48
2021/12/30 00:02:41;;;;;;;24.38;8.07;;;;;;;-143.35;100.00;58682.94;4993983;28;20034;-48
2021/12/30 00:05:08;;;;;;;22.80;7.65;;;;;;;-143.35;100.00;58682.94;4993958;28;20034;-49
2021/12/30 00:07:33;;;;;;;34.42;8.60;;;;;;;-143.35;100.00;58682.94;4994068;28;20474;-48
2021/12/30 00:09:59;;;;;;;41.08;8.35;;;;;;;-143.35;100.00;58682.94;4994098;28;20081;-51
2021/12/30 00:12:24;;;;;;;19.15;6.50;;;;;;;-143.35;100.00;58682.94;4994633;28;20054;-50
2021/12/30 00:14:50;;;;;;;39.60;7.57;;;;;;;-143.35;100.00;58682.94;4997681;28;20444;-49
2021/12/30 00:17:15;;;;;;;28.48;8.90;;;;;;;-143.35;100.00;58682.94;4997897;28;20026;-50
2021/12/30 00:19:41;;;;;;;25.63;8.63;;;;;;;-143.35;100.00;58682.94;4997695;28;20057;-48
2021/12/30 00:22:06;;;;;;;41.83;7.15;;;;;;;-143.35;100.00;58682.94;4997637;28;20033;-48
2021/12/30 00:24:31;;;;;;;42.25;8.05;;;;;;;-143.35;100.00;58682.94;4997419;28;20018;-48
2021/12/30 00:26:57;;;;;;;21.70;5.43;;;;;;;-143.35;100.00;58682.94;4997687;28;20037;-51
2021/12/30 00:29:24;;;;;;;23.25;6.55;;;;;;;-143.35;100.00;58682.94;4997454;28;20037;-48
2021/12/30 00:31:50;;;;;;;24.88;6.22;;;;;;;-143.35;100.00;58682.94;4997577;28;20022;-50
2021/12/30 00:34:16;;;;;;;16.90;5.75;;;;;;;-143.35;100.00;58682.94;4997363;28;20084;-51
2021/12/30 00:36:41;;;;;;;24.17;6.57;;;;;;;-143.35;100.00;58682.94;4997385;28;20058;-48
2021/12/30 00:39:07;;;;;;;31.00;6.18;;;;;;;-143.35;100.00;58682.94;4997287;28;20023;-49
2021/12/30 00:41:32;;;;;;;24.88;6.70;;;;;;;-143.35;100.00;58682.94;4997310;28;20489;-49
2021/12/30 00:43:57;;;;;;;33.38;7.70;;;;;;;-143.35;100.00;58682.94;4997311;28;20030;-48
2021/12/30 00:46:23;;;;;;;30.85;7.40;;;;;;;-143.35;100.00;58682.94;4997065;28;20076;-48
2021/12/30 00:48:48;;;;;;;25.45;7.55;;;;;;;-143.35;100.00;58682.94;4997134;28;20045;-48
2021/12/30 00:51:13;;;;;;;28.42;6.05;;;;;;;-143.35;100.00;58682.94;4997160;28;20084;-48
2021/12/30 00:53:40;;;;;;;26.90;6.80;;;;;;;-143.35;100.00;58682.94;4997123;28;20377;-48
2021/12/30 00:56:06;;;;;;;18.98;5.53;;;;;;;-143.35;100.00;58682.94;4996973;28;20030;-48
2021/12/30 00:58:31;;;;;;;24.08;6.32;;;;;;;-143.35;100.00;58682.94;4997103;28;20033;-51
2021/12/30 01:00:59;;;;;;;18.50;6.32;;;;;;;-143.35;100.00;58682.94;4996996;28;20018;-49
2021/12/30 01:03:25;;;;;;;26.60;5.88;;;;;;;-143.35;100.00;58682.94;4996970;28;20072;-47
2021/12/30 01:05:50;;;;;;;19.05;6.22;;;;;;;-143.35;100.00;58682.94;4996905;28;20066;-49
2021/12/30 01:08:16;;;;;;;14.98;6.22;;;;;;;-143.35;100.00;58682.94;4996623;28;20065;-48
2021/12/30 01:10:43;;;;;;;16.80;6.03;;;;;;;-143.35;100.00;58682.94;4977990;28;20085;-48
2021/12/30 01:13:15;;;;;;;20.88;6.10;;;;;;;-143.35;100.00;58682.94;4996423;28;20490;-49
2021/12/30 01:15:57;;;;;;;19.02;5.80;;;;;;;-143.35;100.00;58682.94;4996656;28;20478;-49
2021/12/30 01:18:33;;;;;;;;;;;;;;;;;;;;;
2021/12/30 01:20:54;;;;;;;18.98;6.28;;;;;;;-143.35;100.00;58682.94;4996539;28;20038;-48
2021/12/30 01:23:20;;;;;;;14.73;6.70;;;;;;;-143.35;100.00;58682.94;4996462;28;20378;-48
2021/12/30 01:25:46;;;;;;;29.88;6.32;;;;;;;-143.35;100.00;58682.94;4996666;28;20034;-49
2021/12/30 01:28:11;;;;;;;9.32;5.20;;;;;;;-143.35;100.00;58682.94;4996390;28;20037;-50
2021/12/30 01:30:37;;;;;;;10.80;5.10;;;;;;;-143.35;100.00;58682.94;4996352;28;20030;-48
2021/12/30 01:33:02;;;;;;;19.77;5.47;;;;;;;-143.35;100.00;58682.94;4996262;28;20050;-48
2021/12/30 01:35:28;;;;;;;11.77;5.30;;;;;;;-143.35;100.00;58682.94;4996295;28;20022;-48
2021/12/30 01:37:57;;;;;;;7.45;4.55;;;;;;;-143.35;100.00;58682.94;4996198;28;20066;-51
2021/12/30 01:40:22;;;;;;;9.57;4.00;;;;;;;-143.35;100.00;58682.94;4996055;28;20389;-49
2021/12/30 01:42:49;;;;;;;14.95;4.47;;;;;;;-143.35;100.00;58682.94;4996202;28;20022;-49
2021/12/30 01:45:15;;;;;;;7.78;3.50;;;;;;;-143.35;100.00;58682.94;4978700;28;20042;-50
2021/12/30 01:47:49;;;;;;;9.50;3.90;;;;;;;-143.35;100.00;58682.94;4996034;28;20554;-51
2021/12/30 01:50:14;;;;;;;11.15;3.95;;;;;;;-143.35;100.00;58682.94;4995964;28;20046;-48
2021/12/30 01:52:40;;;;;;;18.02;3.92;;;;;;;-143.35;100.00;58682.94;4996009;28;20106;-48
2021/12/30 01:55:07;;;;;;;6.22;4.20;;;;;;;-143.35;100.00;58682.94;4995874;28;20470;-48
2021/12/30 01:57:32;;;;;;;7.95;3.95;;;;;;;-143.35;100.00;58682.94;4995838;28;20462;-51
2021/12/30 01:59:58;;;;;;;6.20;4.22;;;;;;;-143.35;100.00;58682.94;4995810;28;20499;-48
2021/12/30 02:02:23;;;;;;;6.75;4.25;;;;;;;-143.35;100.00;58682.94;4995813;28;20023;-49
2021/12/30 02:04:49;;;;;;;5.13;4.43;;;;;;;-143.35;100.00;58682.94;4995666;28;20482;-48
2021/12/30 02:07:14;;;;;;;6.45;3.28;;;;;;;-143.35;100.00;58682.94;4995671;28;20026;-49
2021/12/30 02:09:40;;;;;;;7.28;4.68;;;;;;;-143.35;100.00;58682.94;4995692;28;20508;-48
2021/12/30 02:12:06;;;;;;;7.38;4.20;;;;;;;-143.35;100.00;58682.94;4995352;28;20366;-51
2021/12/30 02:14:33;;;;;;;6.68;3.45;;;;;;;-143.35;100.00;58682.94;4978077;28;20080;-50
2021/12/30 02:16:59;;;;;;;5.72;3.88;;;;;;;-143.35;100.00;58682.94;4995593;28;20385;-49
2021/12/30 02:19:24;;;;;;;9.18;4.40;;;;;;;-143.35;100.00;58682.94;4995488;28;20022;-49
2021/12/30 02:21:50;;;;;;;7.72;4.00;;;;;;;-143.35;100.00;58682.94;4995483;28;20458;-48
2021/12/30 02:24:15;;;;;;;7.07;3.03;;;;;;;-143.35;100.00;58682.94;4995354;28;20077;-49
2021/12/30 02:26:40;;;;;;;4.75;3.63;;;;;;;-143.35;100.00;58682.94;4995272;28;20057;-49
2021/12/30 02:29:08;;;;;;;3.70;2.97;;;;;;;-143.35;100.00;58682.94;4995257;28;20159;-50
2021/12/30 02:31:33;;;;;;;5.20;4.70;;;;;;;-143.35;100.00;58682.94;4995345;28;20041;-48
2021/12/30 02:33:59;;;;;;;8.20;4.90;;;;;;;-143.35;100.00;58682.94;4995139;28;20015;-52
2021/12/30 02:36:32;;;;;;;6.22;4.53;;;;;;;-143.35;100.00;58682.94;4994749;28;20034;-48
2021/12/30 02:38:58;;;;;;;9.05;3.97;;;;;;;-143.35;100.00;58682.94;4995266;28;20105;-49
2021/12/30 02:41:26;;;;;;;6.18;3.63;;;;;;;-143.35;100.00;58682.94;4977832;28;20465;-49
2021/12/30 02:43:52;;;;;;;7.90;4.25;;;;;;;-143.35;100.00;58682.94;4994913;28;20499;-48
2021/12/30 02:46:22;;;;;;;5.90;3.65;;;;;;;-143.35;100.00;58682.94;4995002;28;20193;-48
2021/12/30 02:48:52;;;;;;;6.18;4.15;;;;;;;-143.35;100.00;58682.94;4995060;28;20069;-49
2021/12/30 02:51:18;;;;;;;5.38;4.05;;;;;;;-143.35;100.00;58682.94;4994882;28;20080;-50
2021/12/30 02:53:44;;;;;;;8.65;4.75;;;;;;;-143.35;100.00;58682.94;4994880;28;20018;-48
2021/12/30 02:56:09;;;;;;;6.95;4.25;;;;;;;-143.35;100.00;58682.94;4994848;28;20548;-49
2021/12/30 02:58:35;;;;;;;8.32;4.97;;;;;;;-143.35;100.00;58682.94;4994869;28;20374;-51
2021/12/30 03:01:08;;;;;;;6.75;5.32;;;;;;;-143.35;100.00;58682.94;4994789;28;20038;-50
2021/12/30 03:03:34;;;;;;;7.78;4.57;;;;;;;-143.35;100.00;58682.94;4994660;28;20385;-49
2021/12/30 03:06:02;;;;;;;7.20;5.18;;;;;;;-143.35;100.00;58682.94;4994784;28;20082;-49
2021/12/30 03:08:28;;;;;;;5.55;4.30;;;;;;;-143.35;100.00;58682.94;4994733;28;20026;-49
2021/12/30 03:10:55;;;;;;;7.03;4.18;;;;;;;-143.35;100.00;58682.94;4994636;28;20485;-51
2021/12/30 03:13:29;;;;;;;7.18;4.72;;;;;;;-143.35;100.00;58682.94;5009980;23;20449;-49
2021/12/30 03:15:55;;;;;;;7.65;4.65;;;;;;;-143.35;100.00;58682.94;5014296;28;20030;-49
2021/12/30 03:18:20;;;;;;;9.30;5.72;;;;;;;-143.35;100.00;58682.94;5014227;28;20029;-48
2021/12/30 03:20:46;;;;;;;9.93;5.88;;;;;;;-143.35;100.00;58682.94;5014231;28;20064;-50
2021/12/30 03:23:11;;;;;;;9.73;5.60;;;;;;;-143.35;100.00;58682.94;5014059;28;20457;-49
2021/12/30 03:25:37;;;;;;;5.53;4.40;;;;;;;-143.35;100.00;58682.94;5014081;28;20032;-49
2021/12/30 03:28:02;;;;;;;5.78;4.65;;;;;;;-143.35;100.00;58682.94;5014090;28;20029;-50
2021/12/30 03:30:28;;;;;;;6.78;4.93;;;;;;;-143.35;100.00;58682.94;5014036;28;20021;-49
2021/12/30 03:32:53;;;;;;;6.05;4.10;;;;;;;-143.35;100.00;58682.94;5014167;28;20081;-51
2021/12/30 03:35:19;;;;;;;9.00;4.47;;;;;;;-143.35;100.00;58682.94;5014442;28;20017;-48
2021/12/30 03:37:44;;;;;;;5.90;4.15;;;;;;;-143.35;100.00;58682.94;5014058;28;20030;-49
2021/12/30 03:40:13;;;;;;;8.02;4.40;;;;;;;-143.35;100.00;58682.94;5014000;28;20041;-48
2021/12/30 03:42:39;;;;;;;4.97;3.78;;;;;;;-143.35;100.00;58682.94;5014165;28;20030;-48
2021/12/30 03:45:08;;;;;;;6.32;3.80;;;;;;;-143.35;100.00;58682.94;5013898;28;20030;-48
2021/12/30 03:47:37;;;;;;;5.65;4.07;;;;;;;-143.35;100.00;58682.94;5015022;28;20473;-48
2021/12/30 03:50:05;;;;;;;4.47;4.07;;;;;;;-143.35;100.00;58682.94;5017865;28;20025;-48
2021/12/30 03:52:31;;;;;;;5.95;4.45;;;;;;;-143.35;100.00;58682.94;5017856;28;20105;-49
2021/12/30 03:54:57;;;;;;;4.47;3.67;;;;;;;-143.35;100.00;58682.94;5017826;28;20053;-48
2021/12/30 03:57:23;;;;;;;9.07;3.83;;;;;;;-143.35;100.00;58682.94;5017692;28;20104;-48
2021/12/30 03:59:48;;;;;;;10.35;3.55;;;;;;;-143.35;100.00;58682.94;5017674;28;20508;-49
2021/12/30 04:02:14;;;;;;;4.00;3.47;;;;;;;-143.35;100.00;58682.94;5017596;28;20029;-48
2021/12/30 04:04:39;;;;;;;7.28;4.53;;;;;;;-143.35;100.00;58682.94;5017569;28;20040;-48
2021/12/30 04:07:05;;;;;;;6.88;4.32;;;;;;;-143.35;100.00;58682.94;5017568;28;20362;-48
2021/12/30 04:09:31;;;;;;;5.47;3.70;;;;;;;-143.35;100.00;58682.94;5017550;28;20084;-48
2021/12/30 04:11:56;;;;;;;4.95;3.90;;;;;;;-143.35;100.00;58682.94;5017470;28;20091;-50
2021/12/30 04:14:26;;;;;;;4.80;3.25;;;;;;;-143.35;100.00;58682.94;5016076;28;20496;-49
2021/12/30 04:16:54;;;;;;;3.63;2.83;;;;;;;-143.35;100.00;58682.94;5017350;28;20044;-48
2021/12/30 04:19:20;;;;;;;4.35;3.47;;;;;;;-143.35;100.00;58682.94;5017368;28;20026;-48
2021/12/30 04:21:45;;;;;;;5.72;3.05;;;;;;;-143.35;100.00;58682.94;5017177;28;20038;-48
2021/12/30 04:24:11;;;;;;;4.07;2.58;;;;;;;-143.35;100.00;58682.94;5017168;28;20072;-49
2021/12/30 04:26:37;;;;;;;3.08;2.72;;;;;;;-143.35;100.00;58682.94;5017260;28;20057;-48
2021/12/30 04:29:04;;;;;;;4.00;3.17;;;;;;;-143.35;100.00;58682.94;5017159;28;20477;-48
2021/12/30 04:31:30;;;;;;;3.15;2.17;;;;;;;-143.35;100.00;58682.94;5017136;28;20108;-48
2021/12/30 04:33:56;;;;;;;2.45;2.25;;;;;;;-143.35;100.00;58682.94;5017135;28;20430;-51
2021/12/30 04:36:21;;;;;;;3.80;2.53;;;;;;;-143.35;100.00;58682.94;5016861;28;20440;-49
2021/12/30 04:38:46;;;;;;;3.97;1.92;;;;;;;-143.35;100.00;58682.94;5017028;28;20054;-49
2021/12/30 04:41:12;;;;;;;2.40;2.03;;;;;;;-143.35;100.00;58682.94;5016901;28;20077;-48
2021/12/30 04:43:37;;;;;;;2.08;1.88;;;;;;;-143.35;100.00;58682.94;5016871;28;20021;-49
2021/12/30 04:46:03;;;;;;;3.22;2.50;;;;;;;-143.35;100.00;58682.94;5016932;28;20057;-49
2021/12/30 04:48:28;;;;;;;3.40;2.55;;;;;;;-143.35;100.00;58682.94;5016814;28;20022;-49
2021/12/30 04:50:54;;;;;;;4.93;2.83;;;;;;;-143.35;100.00;58682.94;5016726;28;20032;-50
2021/12/30 04:53:20;;;;;;;3.25;2.53;;;;;;;-143.35;100.00;58682.94;5016679;28;20489;-49
2021/12/30 04:55:46;;;;;;;2.75;2.00;;;;;;;-143.35;100.00;58682.94;5016724;28;20113;-49
2021/12/30 04:58:12;;;;;;;2.92;2.42;;;;;;;-143.35;100.00;58682.94;5016224;28;20469;-48
2021/12/30 05:00:38;;;;;;;3.17;2.60;;;;;;;-143.35;100.00;58682.94;5016554;28;20079;-48
2021/12/30 05:03:09;;;;;;;5.60;2.75;;;;;;;-143.35;100.00;58682.94;5016618;28;20108;-48
2021/12/30 05:05:44;;;;;;;2.92;2.30;;;;;;;-143.35;100.00;58682.94;5016462;28;20030;-48
2021/12/30 05:08:11;;;;;;;3.47;2.58;;;;;;;-143.35;100.00;58682.94;5016419;28;20038;-48
2021/12/30 05:10:37;;;;;;;2.38;1.92;;;;;;;-143.35;100.00;58682.94;5016478;28;20026;-48
2021/12/30 05:13:03;;;;;;;4.47;2.92;;;;;;;-143.35;100.00;58682.94;5016058;28;20091;-51
2021/12/30 05:15:28;;;;;;;4.43;2.50;;;;;;;-143.35;100.00;58682.94;5016228;28;20369;-51
2021/12/30 05:17:54;;;;;;;3.72;2.53;;;;;;;-143.35;100.00;58682.94;5016282;28;20109;-48
2021/12/30 05:20:20;;;;;;;4.13;2.75;;;;;;;-143.35;100.00;58682.94;5016282;28;20030;-48
2021/12/30 05:22:47;;;;;;;4.38;2.40;;;;;;;-143.35;100.00;58682.94;5016625;28;20459;-48
2021/12/30 05:25:15;;;;;;;2.25;1.90;;;;;;;-143.35;100.00;58682.94;5016189;28;20022;-47
2021/12/30 05:27:41;;;;;;;4.40;2.35;;;;;;;-143.35;100.00;58682.94;5016048;28;20069;-48
2021/12/30 05:30:09;;;;;;;3.78;2.92;;;;;;;-143.35;100.00;58682.94;5015862;28;20069;-48
2021/12/30 05:32:35;;;;;;;5.15;2.78;;;;;;;-143.35;100.00;58682.94;5015966;28;20084;-48
2021/12/30 05:35:03;;;;;;;4.07;3.45;;;;;;;-143.35;100.00;58682.94;5015749;28;20034;-48
2021/12/30 05:37:28;;;;;;;4.28;2.85;;;;;;;-143.35;100.00;58682.94;5015732;28;20084;-47
2021/12/30 05:39:53;;;;;;;4.68;3.05;;;;;;;-143.35;100.00;58682.94;5015841;28;20034;-50
2021/12/30 05:42:22;;;;;;;3.88;2.83;;;;;;;-143.35;100.00;58682.94;5015870;28;20053;-48
2021/12/30 05:44:49;;;;;;;6.30;2.92;;;;;;;-143.35;100.00;58682.94;5015682;28;20018;-51
2021/12/30 05:47:15;;;;;;;3.40;2.20;;;;;;;-143.35;100.00;58682.94;5015695;28;20481;-48
2021/12/30 05:49:40;;;;;;;2.65;2.45;;;;;;;-143.35;100.00;58682.94;5015677;28;20029;-50
2021/12/30 05:52:05;;;;;;;6.13;2.70;;;;;;;-143.35;100.00;58682.94;5015671;28;20033;-48
2021/12/30 05:54:31;;;;;;;7.07;2.80;;;;;;;-143.35;100.00;58682.94;5015509;28;20033;-49
2021/12/30 05:56:56;;;;;;;7.05;2.70;;;;;;;-143.35;100.00;58682.94;5015571;28;20464;-48
2021/12/30 05:59:21;;;;;;;3.30;2.58;;;;;;;-143.35;100.00;58682.94;5015543;28;20026;-49
2021/12/30 06:01:47;;;;;;;3.80;2.42;;;;;;;-143.35;100.00;58682.94;5015350;28;20116;-48
2021/12/30 06:04:12;;;;;;;2.78;2.13;;;;;;;-143.35;100.00;58682.94;5015496;28;20034;-48
2021/12/30 06:06:38;;;;;;;3.35;2.03;;;;;;;-143.35;100.00;58682.94;5015380;28;20058;-50
2021/12/30 06:09:03;;;;;;;3.83;2.10;;;;;;;-143.35;100.00;58682.94;5015299;28;20047;-50
2021/12/30 06:11:28;;;;;;;4.00;2.00;;;;;;;-143.35;100.00;58682.94;5014468;28;20033;-49
2021/12/30 06:13:54;;;;;;;3.20;2.25;;;;;;;-143.35;100.00;58682.94;5014952;28;20042;-48
2021/12/30 06:16:19;;;;;;;5.13;2.50;;;;;;;-143.35;100.00;58682.94;5015226;28;20030;-48
2021/12/30 06:18:44;;;;;;;2.22;2.03;;;;;;;-143.35;100.00;58682.94;5015234;28;20493;-49
2021/12/30 06:21:10;;;;;;;5.50;2.03;;;;;;;-143.35;100.00;58682.94;5015112;28;20413;-48
2021/12/30 06:23:35;;;;;;;2.97;1.80;;;;;;;-143.35;100.00;58682.94;5014981;28;20036;-49
2021/12/30 06:26:00;;;;;;;4.72;1.90;;;;;;;-143.35;100.00;58682.94;5015028;28;20017;-48
2021/12/30 06:28:26;;;;;;;1.83;1.63;;;;;;;-143.35;100.00;58682.94;5014986;28;20026;-48
2021/12/30 06:30:51;;;;;;;2.15;1.50;;;;;;;-143.35;100.00;58682.94;5014910;28;20109;-48
2021/12/30 06:33:16;;;;;;;3.42;1.30;;;;;;;-143.35;100.00;58682.94;5014970;28;20033;-48
2021/12/30 06:35:42;;;;;;;2.03;1.25;;;;;;;-143.35;100.00;58682.94;5014786;28;20105;-48
2021/12/30 06:38:07;;;;;;;1.55;1.45;;;;;;;-143.35;100.00;58682.94;5014859;28;20421;-48
2021/12/30 06:40:32;;;;;;;2.67;1.33;;;;;;;-143.35;100.00;58682.94;5014694;28;20026;-50
2021/12/30 06:42:58;;;;;;;1.67;1.13;;;;;;;-143.35;100.00;58682.94;5014780;28;20096;-51
2021/12/30 06:45:23;;;;;;;2.88;1.30;;;;;;;-143.35;100.00;58682.94;5014625;28;20097;-49
2021/12/30 06:47:49;;;;;;;1.95;1.30;;;;;;;-143.35;100.00;58682.94;5014557;28;20026;-48
2021/12/30 06:50:16;;;;;;;6.53;1.52;;;;;;;-143.35;100.00;58682.94;5013348;28;20026;-48
2021/12/30 06:52:42;;;;;;;1.88;1.67;;;;;;;-143.35;100.00;58682.94;5014551;28;20029;-48
2021/12/30 06:55:09;;;;;;;8.75;1.63;;;;;;;-143.35;100.00;58682.94;5014438;28;20036;-51
2021/12/30 06:57:35;;;;;;;3.78;2.28;;;;;;;-143.35;100.00;58682.94;5014473;28;20034;-49
2021/12/30 07:00:00;;;;;;;4.70;1.92;;;;;;;-143.35;100.00;58682.94;5014442;28;20622;-50
2021/12/30 07:02:26;;;;;;;4.63;1.50;;;;;;;-143.35;100.00;58682.94;5014334;28;20164;-49
2021/12/30 07:04:51;;;;;;;3.20;1.48;;;;;;;-143.35;100.00;58682.94;5014337;28;20041;-51
2021/12/30 07:07:16;;;;;;;2.75;1.73;;;;;;;-143.35;100.00;58682.94;5014363;28;20075;-48
2021/12/30 07:09:42;;;;;;;1.58;1.27;;;;;;;-143.35;100.00;58682.94;5014257;28;20088;-48
2021/12/30 07:12:08;;;;;;;1.55;1.02;;;;;;;-143.35;100.00;58682.94;5014233;28;20112;-49
2021/12/30 07:14:33;;;;;;;2.05;1.08;;;;;;;-143.35;100.00;58682.94;5013958;28;20085;-51
2021/12/30 07:16:59;;;;;;;1.75;0.93;;;;;;;-143.35;100.00;58682.94;5014292;28;20053;-49
2021/12/30 07:19:24;;;;;;;1.95;1.13;;;;;;;-143.35;100.00;58682.94;5014194;28;20022;-48
2021/12/30 07:21:52;;;;;;;4.00;1.00;;;;;;;-143.35;100.00;58682.94;5014062;28;20026;-48
2021/12/30 07:24:20;;;;;;;5.20;1.63;;;;;;;-143.35;100.00;58682.94;5014110;28;20057;-49
2021/12/30 07:26:47;;;;;;;2.80;1.40;;;;;;;-143.35;100.00;58682.94;5014123;28;20054;-48
2021/12/30 07:29:12;;;;;;;1.98;1.15;;;;;;;-143.35;100.00;58682.94;5014117;28;20018;-48
2021/12/30 07:31:37;;;;;;;3.42;1.25;;;;;;;-143.35;100.00;58682.94;5014205;28;20072;-48
2021/12/30 07:34:03;;;;;;;2.97;1.60;;;;;;;-143.35;100.00;58682.94;5014060;28;20017;-48
2021/12/30 07:36:28;;;;;;;2.60;0.68;;;;;;;-143.35;100.00;58682.94;5013972;28;20072;-51
2021/12/30 07:38:54;;;;;;;2.55;1.45;;;;;;;-143.35;100.00;58682.94;5014100;28;20022;-49
2021/12/30 07:41:19;;;;;;;2.38;1.35;;;;;;;-143.35;100.00;58682.94;5014036;28;20028;-49
2021/12/30 07:43:45;;;;;;;3.67;1.20;;;;;;;-143.35;100.00;58682.94;5013793;28;20159;-48
2021/12/30 07:46:11;;;;;;;4.25;1.10;;;;;;;-143.35;100.00;58682.94;5013999;28;20065;-48
2021/12/30 07:48:37;;;;;;;8.60;1.75;;;;;;;-143.35;100.00;58682.94;5014073;28;20030;-51
2021/12/30 07:51:04;;;;;;;2.65;0.88;;;;;;;-143.35;100.00;58682.94;5014025;28;20085;-48
2021/12/30 07:53:29;;;;;;;3.17;1.35;;;;;;;-143.35;100.00;58682.94;5014044;28;20084;-48
2021/12/30 07:55:55;;;;;;;1.95;1.48;;;;;;;-143.35;100.00;58682.94;5014485;28;20030;-48
2021/12/30 07:58:20;;;;;;;6.70;1.35;;;;;;;-143.35;100.00;58682.94;5014049;28;20088;-48
2021/12/30 08:00:46;;;;;;;7.80;2.30;;;;;;;-143.35;100.00;58682.94;5014003;28;20030;-48
2021/12/30 08:03:11;;;;;;;6.35;1.77;;;;;;;-143.35;100.00;58682.94;5013989;28;20076;-48
2021/12/30 08:05:37;;;;;;;6.47;1.92;;;;;;;-143.35;100.00;58682.94;5012604;28;20026;-48
2021/12/30 08:08:02;;;;;;;4.15;1.75;;;;;;;-143.35;100.00;58682.94;5013748;28;20030;-48
2021/12/30 08:10:30;;;;;;;9.88;2.70;;;;;;;-143.35;100.00;58682.94;5013761;28;20489;-48
2021/12/30 08:12:56;;;;;;;6.57;2.05;;;;;;;-143.35;100.00;58682.94;5013557;28;20073;-48
2021/12/30 08:15:22;;;;;;;3.50;1.00;;;;;;;-143.35;100.00;58682.94;5013611;28;20018;-48
2021/12/30 08:17:49;;;;;;;3.88;1.60;;;;;;;-143.35;100.00;58682.94;5013802;28;20469;-50
2021/12/30 08:20:16;;;;;;;10.95;1.90;;;;;;;-143.35;100.00;58682.94;5013616;28;20029;-48
2021/12/30 08:22:42;;;;;;;4.00;1.48;;;;;;;-143.35;100.00;58682.94;5013608;28;20097;-48
2021/12/30 08:25:09;;;;;;;8.48;2.05;;;;;;;-143.35;100.00;58682.94;5013475;28;20501;-48
2021/12/30 08:27:35;;;;;;;5.55;1.88;;;;;;;-143.35;100.00;58682.94;5013382;28;20108;-48
2021/12/30 08:30:01;;;;;;;13.48;2.13;;;;;;;-143.35;100.00;58682.94;5013544;28;20555;-49
2021/12/30 08:32:26;;;;;;;10.57;2.70;;;;;;;-143.35;100.00;58682.94;5013503;28;20030;-49
2021/12/30 08:34:52;;;;;;;5.45;1.95;;;;;;;-143.35;100.00;58682.94;5016409;28;20025;-49
2021/12/30 08:37:17;;;;;;;4.95;2.35;;;;;;;-143.35;100.00;58682.94;5016904;28;20045;-48
2021/12/30 08:39:44;;;;;;;4.70;2.75;;;;;;;-143.35;100.00;58682.94;5017030;28;20032;-50
2021/12/30 08:42:19;;;;;;;6.15;1.55;;;;;;;-143.35;100.00;58682.94;5017073;28;20022;-49
2021/12/30 08:44:44;;;;;;;9.10;2.10;;;;;;;-143.35;100.00;58682.94;5016765;28;20026;-49
2021/12/30 08:47:10;;;;;;;5.53;2.28;;;;;;;-143.35;100.00;58682.94;5016665;28;20076;-48
2021/12/30 08:49:35;;;;;;;4.25;1.70;;;;;;;-143.35;100.00;58682.94;5016828;28;20049;-48
2021/12/30 08:52:01;;;;;;;11.38;2.40;;;;;;;-143.35;100.00;58682.94;5016715;28;20026;-50
2021/12/30 08:54:26;;;;;;;13.93;2.72;;;;;;;-143.35;100.00;58682.94;5016722;28;20418;-48
2021/12/30 08:56:52;;;;;;;9.65;4.00;;;;;;;-143.35;100.00;58682.94;5016679;28;20022;-49
2021/12/30 08:59:17;;;;;;;10.40;2.80;;;;;;;-143.35;100.00;58682.94;5016644;28;20025;-49
2021/12/30 09:01:42;;;;;;;8.13;2.58;;;;;;;-143.35;100.00;58682.94;5016588;28;20041;-48
2021/12/30 09:04:08;;;;;;;6.57;1.88;;;;;;;-143.35;100.00;58682.94;5016448;28;20493;-48
2021/12/30 09:06:33;;;;;;;7.97;2.08;;;;;;;-143.35;100.00;58682.94;5016397;28;20028;-49
2021/12/30 09:08:59;;;;;;;5.32;2.00;;;;;;;-143.35;100.00;58682.94;5016495;28;20028;-51
2021/12/30 09:11:24;;;;;;;20.58;2.78;;;;;;;-143.35;100.00;58682.94;5016337;28;20034;-48
2021/12/30 09:13:49;;;;;;;16.02;2.70;;;;;;;-143.35;100.00;58682.94;5016142;28;20108;-50
2021/12/30 09:16:15;;;;;;;4.72;1.70;;;;;;;-143.35;100.00;58682.94;5016446;28;20109;-48
2021/12/30 09:18:40;;;;;;;10.38;2.60;;;;;;;-143.35;100.00;58682.94;5016444;28;20370;-47
2021/12/30 09:21:06;;;;;;;7.40;2.35;;;;;;;-143.35;100.00;58682.94;5016293;28;20096;-48
2021/12/30 09:23:34;;;;;;;15.07;2.80;;;;;;;-143.35;100.00;58682.94;5016002;28;20058;-48
2021/12/30 09:26:00;;;;;;;14.15;3.47;;;;;;;-143.35;100.00;58682.94;5016250;28;20359;-49
2021/12/30 09:28:25;;;;;;;12.88;2.53;;;;;;;-143.35;100.00;58682.94;5015682;28;20034;-50
2021/12/30 09:30:51;;;;;;;6.45;2.85;;;;;;;-143.35;100.00;58682.94;5015895;28;20104;-50
2021/12/30 09:33:16;;;;;;;5.90;2.33;;;;;;;-143.35;100.00;58682.94;5016108;28;20426;-48
2021/12/30 09:35:43;;;;;;;4.05;2.08;;;;;;;-143.35;100.00;58682.94;5015898;28;20061;-51
2021/12/30 09:38:08;;;;;;;8.20;3.10;;;;;;;-143.35;100.00;58682.94;5015753;28;20037;-49
2021/12/30 09:40:34;;;;;;;8.82;3.10;;;;;;;-143.35;100.00;58682.94;5014906;28;20029;-50
2021/12/30 09:43:04;;;;;;;9.45;2.88;;;;;;;-143.35;100.00;58682.94;5016312;28;20033;-48
2021/12/30 09:45:33;;;;;;;10.88;2.92;;;;;;;-143.35;100.00;58682.94;5014795;28;20026;-48
2021/12/30 09:48:00;;;;;;;12.25;2.42;;;;;;;-143.35;100.00;58682.94;5014725;28;20061;-48
2021/12/30 09:50:30;;;;;;;13.98;3.45;;;;;;;-143.35;100.00;58682.94;5015686;28;20084;-48
2021/12/30 09:52:58;;;;;;;14.50;3.83;;;;;;;-143.35;100.00;58682.94;5015703;28;20030;-48
2021/12/30 09:55:25;;;;;;;11.50;3.20;;;;;;;-143.35;100.00;58682.94;5015549;28;20025;-48
2021/12/30 09:57:51;;;;;;;11.30;3.53;;;;;;;-143.35;100.00;58682.94;5015652;28;20035;-48
2021/12/30 10:00:17;;;;;;;14.07;4.10;;;;;;;-143.35;100.00;58682.94;5014294;28;20473;-49
2021/12/30 10:02:44;;;;;;;9.73;4.85;;;;;;;-143.35;100.00;58682.94;5015397;28;20050;-50
2021/12/30 10:05:13;;;;;;;37.55;8.07;;;;;;;-143.35;100.00;58682.94;5015270;28;20034;-48
2021/12/30 10:07:41;;;;;;;16.45;5.65;;;;;;;-143.35;100.00;58682.94;5015360;28;20021;-48
2021/12/30 10:10:28;;;;;;;23.20;6.03;;;;;;;-143.35;100.00;58682.94;5015403;28;20083;-49
2021/12/30 10:12:54;;;;;;;13.23;4.40;;;;;;;-143.35;100.00;58682.94;4973898;28;20553;-48
2021/12/30 10:15:24;;;;;;;14.02;4.13;;;;;;;-143.35;100.00;58682.94;4974084;28;20066;-51
2021/12/30 10:17:58;;;;;;;;;;;;;;;-143.35;100.00;58682.94;4974547;28;20129;-48
2021/12/30 10:20:27;;;;;;;8.27;3.28;;;;;;;-143.35;100.00;58682.94;4974071;28;19910;-49
2021/12/30 10:22:55;;;;;;;5.00;2.55;;;;;;;-143.35;100.00;58682.94;4974105;28;20479;-51
2021/12/30 10:25:29;;;;;;;9.45;2.47;;;;;;;-143.35;100.00;58682.94;4973823;28;20529;-49
2021/12/30 10:27:56;;;;;;;7.55;3.00;;;;;;;-143.35;100.00;58682.94;4973860;28;20078;-48
2021/12/30 10:30:33;;;;;;;5.38;3.53;;;;;;;-143.35;100.00;58682.94;4990172;28;20560;-48
2021/12/30 10:33:20;;;;;;;11.73;3.65;;;;;;;-143.35;100.00;58682.94;5014920;28;20088;-48
2021/12/30 10:35:47;;;;;;;10.98;2.85;;;;;;;-143.35;100.00;58682.94;5014897;28;20017;-48
2021/12/30 10:38:12;;;;;;;9.20;2.20;;;;;;;-143.35;100.00;58682.94;5014751;28;20026;-48
2021/12/30 10:40:41;;;;;;;7.05;2.83;;;;;;;-143.35;100.00;58682.94;5014808;28;20024;-51
2021/12/30 10:43:32;;;;;;;9.75;3.20;;;;;;;-143.35;100.00;58682.94;5014788;28;20018;-48
2021/12/30 10:46:09;;;;;;;8.98;2.45;;;;;;;-143.35;100.00;58682.94;5014730;28;20034;-48
2021/12/30 10:48:45;;;;;;;13.75;2.97;;;;;;;-143.35;100.00;58682.94;5014637;28;20116;-50
2021/12/30 10:51:16;;;;;;;12.68;2.45;;;;;;;-143.35;100.00;58682.94;5014627;28;20481;-48
2021/12/30 10:53:42;;;;;;;3.35;2.63;;;;;;;-143.35;100.00;58682.94;5014456;28;20034;-48
2021/12/30 10:56:19;;;;;;;8.07;3.05;;;;;;;-143.35;100.00;58682.94;5014124;28;20026;-49
2021/12/30 10:58:44;;;;;;;4.28;3.10;;;;;;;-143.35;100.00;58682.94;5014459;28;20481;-48
2021/12/30 11:01:15;;;;;;;3.63;2.83;;;;;;;-143.35;100.00;58682.94;5014387;28;20101;-49
2021/12/30 11:03:42;;;;;;;8.13;2.42;;;;;;;-143.35;100.00;58682.94;5014309;28;20041;-48
2021/12/30 11:06:19;;;;;;;3.17;1.70;;;;;;;-143.35;100.00;58682.94;5014426;28;20022;-51